Time;durP1;ratioP1;P1;durP2;ratioP2;P2;SDS_P1;SDS_P2;PMS_P1;PMS_P2;Temp;Humidity;BMP_temperature;BMP_pressure;BME280_temperature;BME280_humidity;BME280_pressure;Samples;Min_cycle;Max_cycle;Signal;HPM_P1;HPM_P2
2022/01/11 00:01:50;;;;;;;13.10;9.38;;;;;;;-3.15;82.89;98883.33;1777076;80;20975;-64
2022/01/11 00:04:18;;;;;;;13.75;9.30;;;;;;;-3.19;83.00;98885.52;1777121;80;20833;-59
2022/01/11 00:06:50;;;;;;;13.85;9.23;;;;;;;-3.19;83.15;98885.52;1777200;80;20836;-62
2022/01/11 00:09:32;;;;;;;12.88;9.08;;;;;;;-3.20;83.05;98889.12;1775968;79;20967;-65
2022/01/11 00:11:49;;;;;;;12.55;8.75;;;;;;;-3.22;82.99;98888.48;1775070;79;20860;-66
2022/01/11 00:14:15;;;;;;;15.63;9.08;;;;;;;-3.20;82.99;98892.26;1777295;80;21878;-61
2022/01/11 00:16:42;;;;;;;12.63;9.20;;;;;;;-3.21;82.90;98899.79;1777162;80;21466;-59
2022/01/11 00:19:10;;;;;;;12.23;9.10;;;;;;;-3.23;82.77;98899.16;1777399;80;20919;-61
2022/01/11 00:21:44;;;;;;;12.05;8.65;;;;;;;-3.27;82.79;98897.38;1777176;80;20900;-61
2022/01/11 00:26:51;;;;;;;;;;;;;;;-3.31;82.75;98901.86;1780039;80;21791;-67
2022/01/11 00:29:17;;;;;;;13.08;7.67;;;;;;;-3.33;82.80;98905.98;1760751;81;20105;-66
2022/01/11 00:31:46;;;;;;;10.00;7.30;;;;;;;-3.37;82.83;98915.20;1760232;81;20913;-64
2022/01/11 00:34:15;;;;;;;9.30;6.95;;;;;;;-3.40;82.66;98914.23;1760812;81;20885;-60
2022/01/11 00:36:42;;;;;;;11.40;6.47;;;;;;;-3.44;82.56;98912.16;1782642;80;21398;-66
2022/01/11 00:39:10;;;;;;;9.75;6.95;;;;;;;-3.48;82.58;98916.44;1782829;80;21587;-66
2022/01/11 00:41:39;;;;;;;10.80;7.62;;;;;;;-3.50;82.50;98911.05;1782455;80;21003;-60
2022/01/11 00:44:07;;;;;;;10.93;6.80;;;;;;;-3.52;82.59;98914.35;1804688;79;20996;-67
2022/01/11 00:46:35;;;;;;;11.12;7.60;;;;;;;-3.54;82.52;98910.61;1816114;78;21415;-61
2022/01/11 00:49:03;;;;;;;11.05;7.87;;;;;;;-3.57;82.56;98907.52;1816035;79;20885;-66
2022/01/11 00:51:29;;;;;;;13.68;9.03;;;;;;;-3.58;82.69;98909.84;1815997;79;21060;-60
2022/01/11 00:53:57;;;;;;;13.30;9.08;;;;;;;-3.57;82.82;98915.38;1815812;79;20853;-61
2022/01/11 00:56:24;;;;;;;12.58;9.60;;;;;;;-3.56;82.92;98916.50;1815910;79;20896;-67
2022/01/11 00:58:51;;;;;;;11.03;8.98;;;;;;;-3.55;83.07;98907.66;1816075;79;20955;-62
2022/01/11 01:01:17;;;;;;;12.50;8.43;;;;;;;-3.52;83.17;98910.42;1816010;79;20853;-67
2022/01/11 01:03:44;;;;;;;14.23;8.75;;;;;;;-3.52;83.18;98913.05;1816101;79;21721;-66
2022/01/11 01:06:11;;;;;;;12.30;8.35;;;;;;;-3.52;83.34;98909.94;1815726;78;20905;-64
2022/01/11 01:08:38;;;;;;;12.65;8.93;;;;;;;-3.50;83.38;98913.67;1816127;79;21372;-66
2022/01/11 01:11:06;;;;;;;13.88;8.30;;;;;;;-3.50;83.29;98913.67;1823019;78;20911;-64
2022/01/11 01:13:35;;;;;;;13.32;8.58;;;;;;;-3.52;83.24;98916.97;1827389;78;21353;-60
2022/01/11 01:16:04;;;;;;;10.88;8.13;;;;;;;-3.59;83.10;98923.42;1788181;80;21719;-61
2022/01/11 01:18:36;;;;;;;13.08;8.00;;;;;;;-3.64;83.07;98915.77;1787287;80;20899;-64
2022/01/11 01:21:03;;;;;;;11.30;7.50;;;;;;;-3.64;82.98;98917.08;1788476;80;20871;-61
2022/01/11 01:23:30;;;;;;;10.20;7.62;;;;;;;-3.66;82.85;98921.69;1788564;80;21477;-61
2022/01/11 01:25:57;;;;;;;11.65;7.62;;;;;;;-3.69;82.79;98915.00;1788527;80;20856;-66
2022/01/11 01:28:24;;;;;;;12.30;7.83;;;;;;;-3.70;82.73;98921.21;1788381;80;21091;-68
2022/01/11 01:30:52;;;;;;;12.80;8.30;;;;;;;-3.71;82.72;98920.09;1788527;80;21491;-61
2022/01/11 01:33:19;;;;;;;10.20;7.75;;;;;;;-3.70;82.78;98930.89;1788470;80;20891;-60
2022/01/11 01:35:51;;;;;;;13.53;7.37;;;;;;;-3.72;82.56;98925.81;1785790;80;20919;-66
2022/01/11 01:38:14;;;;;;;13.10;7.95;;;;;;;-3.74;82.62;98927.80;1787741;80;20840;-63
2022/01/11 01:40:45;;;;;;;10.55;7.75;;;;;;;-3.74;82.53;98926.49;1788473;80;21091;-61
2022/01/11 01:43:11;;;;;;;10.65;7.40;;;;;;;-3.77;82.45;98924.73;1787965;80;21549;-67
2022/01/11 01:45:38;;;;;;;11.30;7.75;;;;;;;-3.81;82.39;98927.37;1788431;80;20832;-62
2022/01/11 01:48:07;;;;;;;10.08;7.72;;;;;;;-3.86;82.52;98928.42;1788353;80;21304;-64
2022/01/11 01:50:35;;;;;;;10.23;7.65;;;;;;;-3.87;82.46;98933.32;1788571;80;20919;-59
2022/01/11 01:53:05;;;;;;;11.43;7.78;;;;;;;-3.92;82.45;98937.78;1788421;80;21098;-69
2022/01/11 01:55:32;;;;;;;12.45;8.60;;;;;;;-3.94;82.56;98937.14;1788380;80;20946;-59
2022/01/11 01:57:58;;;;;;;10.60;7.80;;;;;;;-3.92;82.67;98944.81;1788382;80;21382;-66
2022/01/11 02:00:28;;;;;;;10.90;7.40;;;;;;;-3.93;82.37;98944.51;1788442;80;20876;-65
2022/01/11 02:03:06;;;;;;;12.55;7.87;;;;;;;-3.99;82.40;98952.55;1788401;79;20894;-65
2022/01/11 02:05:33;;;;;;;11.88;7.67;;;;;;;-4.09;82.38;98948.03;1762686;80;21113;-68
2022/01/11 02:08:00;;;;;;;11.35;7.92;;;;;;;-4.19;82.57;98949.57;1788279;80;20907;-67
2022/01/11 02:10:27;;;;;;;10.53;8.08;;;;;;;-4.21;82.75;98952.86;1786421;80;20966;-66
2022/01/11 02:12:55;;;;;;;14.03;8.13;;;;;;;-4.21;82.78;98951.55;1787388;78;20988;-66
2022/01/11 02:15:23;;;;;;;13.68;8.70;;;;;;;-4.20;82.77;98960.22;1821803;78;20928;-61
2022/01/11 02:17:51;;;;;;;12.65;8.33;;;;;;;-4.20;82.76;98962.34;1821873;78;21101;-64
2022/01/11 02:20:19;;;;;;;13.08;8.38;;;;;;;-4.19;82.70;98952.67;1821725;78;20888;-65
2022/01/11 02:22:45;;;;;;;12.10;9.13;;;;;;;-4.22;82.70;98963.51;1821785;78;20896;-67
2022/01/11 02:25:12;;;;;;;13.45;8.68;;;;;;;-4.22;82.63;98956.97;1821822;78;20912;-62
2022/01/11 02:27:39;;;;;;;13.15;8.90;;;;;;;-4.27;82.53;98957.48;1821792;78;21094;-62
2022/01/11 02:30:08;;;;;;;11.33;8.05;;;;;;;-4.31;82.62;98958.80;1821783;77;21112;-59
2022/01/11 02:32:51;;;;;;;13.45;8.28;;;;;;;-4.31;82.61;98960.11;1821811;78;20822;-66
2022/01/11 02:35:18;;;;;;;14.55;9.25;;;;;;;-4.31;82.67;98961.41;1821914;77;20868;-65
2022/01/11 02:37:45;;;;;;;12.23;8.08;;;;;;;-4.31;82.65;98965.85;1747176;80;20852;-60
2022/01/11 02:40:16;;;;;;;14.60;8.88;;;;;;;-4.33;82.64;98967.31;1822694;78;20904;-55
2022/01/11 02:42:43;;;;;;;13.00;8.20;;;;;;;-4.38;82.74;98963.09;1822620;78;21110;-67
2022/01/11 02:45:15;;;;;;;12.55;8.40;;;;;;;-4.40;82.89;98965.06;1821781;77;20916;-63
2022/01/11 02:47:41;;;;;;;13.22;8.65;;;;;;;-4.42;82.82;98963.61;1822077;77;21337;-63
2022/01/11 02:50:11;;;;;;;13.58;9.53;;;;;;;-4.46;82.75;98962.33;1830724;77;21030;-65
2022/01/11 02:52:39;;;;;;;17.92;11.97;;;;;;;-4.49;82.85;98964.79;1780022;80;20970;-63
2022/01/11 02:55:11;;;;;;;15.00;9.93;;;;;;;-4.50;82.84;98964.97;1821861;78;21157;-66
2022/01/11 02:57:37;;;;;;;14.03;8.90;;;;;;;-4.51;82.93;98968.56;1822021;78;20860;-61
2022/01/11 03:00:13;;;;;;;14.83;8.90;;;;;;;-4.53;83.10;98968.73;1812816;78;21375;-59
2022/01/11 03:02:40;;;;;;;11.55;8.28;;;;;;;-4.53;83.28;98967.44;1821755;78;20995;-63
2022/01/11 03:05:10;;;;;;;11.78;8.20;;;;;;;-4.53;83.39;98975.28;1780531;80;20872;-60
2022/01/11 03:07:39;;;;;;;11.03;8.05;;;;;;;-4.54;83.46;98976.25;1780326;80;21098;-65
2022/01/11 03:10:20;;;;;;;12.15;8.13;;;;;;;-4.56;83.58;98983.45;1780315;80;20857;-60
2022/01/11 03:12:43;;;;;;;14.68;8.25;;;;;;;-4.56;83.52;98983.94;1778368;80;20994;-67
2022/01/11 03:15:11;;;;;;;11.70;8.33;;;;;;;-4.63;83.48;98990.34;1780364;80;20872;-61
2022/01/11 03:17:40;;;;;;;11.40;8.13;;;;;;;-4.68;83.58;98993.95;1787895;78;20935;-63
2022/01/11 03:20:08;;;;;;;10.82;7.75;;;;;;;-4.68;83.69;99004.91;1821852;78;21114;-63
2022/01/11 03:22:35;;;;;;;11.97;8.15;;;;;;;-4.68;83.85;99003.11;1821973;78;20892;-60
2022/01/11 03:25:05;;;;;;;13.98;8.25;;;;;;;-4.68;83.86;99009.64;1822080;77;21412;-67
2022/01/11 03:27:33;;;;;;;12.23;7.72;;;;;;;-4.70;83.89;99005.56;1822235;77;20955;-66
2022/01/11 03:30:01;;;;;;;11.38;7.53;;;;;;;-4.70;83.85;99004.26;1821796;78;20920;-59
2022/01/11 03:32:30;;;;;;;10.30;7.90;;;;;;;-4.71;83.95;99002.65;1821735;77;21096;-66
2022/01/11 03:34:57;;;;;;;12.58;7.87;;;;;;;-4.74;84.11;99007.72;1821780;78;20848;-63
2022/01/11 03:37:23;;;;;;;12.03;8.83;;;;;;;-4.75;84.18;99013.92;1822174;78;21463;-60
2022/01/11 03:39:51;;;;;;;11.38;8.68;;;;;;;-4.78;84.26;99015.55;1821982;78;20896;-63
2022/01/11 03:42:18;;;;;;;15.60;9.15;;;;;;;-4.82;84.25;99016.88;1822335;77;20912;-59
2022/01/11 03:44:45;;;;;;;12.37;8.93;;;;;;;-4.86;84.30;99018.20;1821907;78;21434;-64
2022/01/11 03:47:12;;;;;;;14.53;9.13;;;;;;;-4.87;84.42;99025.23;1822122;78;20896;-64
2022/01/11 03:49:39;;;;;;;13.15;9.20;;;;;;;-4.84;84.51;99026.69;1822005;77;20836;-66
2022/01/11 03:52:07;;;;;;;13.20;7.75;;;;;;;-4.83;84.43;99024.41;1822169;78;20869;-65
2022/01/11 03:57:24;;;;;;;10.32;8.28;;;;;;;-4.84;84.49;99029.30;1781002;80;21106;-59
2022/01/11 03:59:51;;;;;;;14.07;8.60;;;;;;;-4.87;84.49;99026.53;1821814;78;20884;-63
2022/01/11 04:02:18;;;;;;;13.00;8.40;;;;;;;-4.84;84.50;99028.00;1821881;78;20923;-59
2022/01/11 04:04:52;;;;;;;12.82;8.28;;;;;;;-4.82;84.52;99029.95;1821888;77;20920;-62
2022/01/11 04:07:15;;;;;;;12.58;8.20;;;;;;;-4.80;84.51;99037.64;1821126;78;20833;-67
2022/01/11 04:09:41;;;;;;;14.65;9.38;;;;;;;-4.80;84.37;99035.81;1821964;77;21104;-66
2022/01/11 04:12:10;;;;;;;11.45;8.10;;;;;;;-4.85;84.37;99038.94;1825629;78;20998;-60
2022/01/11 04:14:38;;;;;;;9.90;7.00;;;;;;;-4.87;84.49;99046.13;1827753;78;21407;-66
2022/01/11 04:17:05;;;;;;;11.30;8.50;;;;;;;-4.86;84.49;99048.27;1827454;78;20880;-60
2022/01/11 04:19:33;;;;;;;12.30;7.97;;;;;;;-4.89;84.57;99045.48;1827404;78;20955;-61
2022/01/11 04:22:00;;;;;;;11.75;7.80;;;;;;;-4.87;84.58;99053.16;1827550;78;21104;-63
2022/01/11 04:24:27;;;;;;;11.88;8.20;;;;;;;-4.87;84.53;99051.36;1827626;78;21351;-59
2022/01/11 04:26:54;;;;;;;16.37;10.00;;;;;;;-4.93;84.52;99052.04;1827470;78;20948;-65
2022/01/11 04:29:21;;;;;;;10.18;8.08;;;;;;;-4.97;84.68;99057.77;1827444;78;20959;-59
2022/01/11 04:31:48;;;;;;;12.50;8.25;;;;;;;-4.95;84.68;99059.72;1827482;78;20892;-60
2022/01/11 04:34:17;;;;;;;11.65;7.95;;;;;;;-4.98;84.71;99058.25;1788573;80;21089;-63
2022/01/11 04:36:44;;;;;;;12.20;9.03;;;;;;;-5.01;84.73;99061.67;1788681;80;21490;-66
2022/01/11 04:39:12;;;;;;;13.05;9.23;;;;;;;-5.01;84.94;99062.98;1788411;80;20860;-67
2022/01/11 04:41:39;;;;;;;12.45;8.13;;;;;;;-4.97;84.92;99066.91;1788405;80;20836;-66
2022/01/11 04:44:07;;;;;;;12.60;8.68;;;;;;;-4.93;84.92;99068.20;1788729;80;20915;-60
2022/01/11 04:46:35;;;;;;;11.40;8.08;;;;;;;-4.92;84.78;99076.35;1788526;80;21043;-59
2022/01/11 04:49:02;;;;;;;12.35;8.43;;;;;;;-4.96;84.81;99069.83;1788346;80;20947;-62
2022/01/11 04:51:29;;;;;;;13.55;9.08;;;;;;;-4.95;84.87;99081.93;1788729;80;21402;-59
2022/01/11 04:53:56;;;;;;;13.72;9.23;;;;;;;-4.95;84.85;99084.06;1788465;80;20872;-63
2022/01/11 04:56:23;;;;;;;13.83;8.70;;;;;;;-4.94;84.90;99092.20;1788432;80;20915;-65
2022/01/11 04:58:50;;;;;;;13.53;9.05;;;;;;;-4.98;84.73;99089.61;1788390;80;21191;-58
2022/01/11 05:01:17;;;;;;;13.72;9.10;;;;;;;-5.03;84.79;99092.38;1788634;80;20899;-59
2022/01/11 05:03:44;;;;;;;11.33;7.97;;;;;;;-5.03;84.96;99089.28;1788383;80;20868;-62
2022/01/11 05:06:12;;;;;;;14.28;9.40;;;;;;;-5.02;84.94;99086.19;1788765;80;21457;-65
2022/01/11 05:08:39;;;;;;;15.00;9.33;;;;;;;-5.00;84.96;99089.45;1755026;80;20907;-65
2022/01/11 05:11:07;;;;;;;12.03;8.65;;;;;;;-5.00;85.05;99097.28;1787143;79;21110;-62
2022/01/11 05:13:34;;;;;;;14.95;9.83;;;;;;;-5.03;84.91;99101.04;1780506;80;21334;-66
2022/01/11 05:16:04;;;;;;;15.00;9.65;;;;;;;-5.07;85.02;99104.15;1821914;78;20951;-67
2022/01/11 05:18:31;;;;;;;15.40;9.98;;;;;;;-5.07;85.08;99104.97;1822138;77;21423;-64
2022/01/11 05:20:58;;;;;;;14.15;9.85;;;;;;;-5.09;85.00;99106.11;1821937;78;20911;-65
2022/01/11 05:23:24;;;;;;;15.40;9.90;;;;;;;-5.09;85.09;99113.95;1821906;78;21105;-64
2022/01/11 05:25:51;;;;;;;18.03;10.63;;;;;;;-5.11;85.09;99117.22;1821837;78;20939;-66
2022/01/11 05:28:18;;;;;;;15.38;10.32;;;;;;;-5.13;85.13;99130.91;1821908;78;20876;-62
2022/01/11 05:30:44;;;;;;;15.50;9.75;;;;;;;-5.13;85.22;99130.91;1821904;78;21411;-62
2022/01/11 05:33:11;;;;;;;13.95;9.58;;;;;;;-5.15;85.18;99132.87;1822273;78;20924;-65
2022/01/11 05:35:39;;;;;;;15.78;10.63;;;;;;;-5.14;85.27;99137.13;1821753;77;22243;-58
2022/01/11 05:38:05;;;;;;;15.93;10.15;;;;;;;-5.12;85.30;99140.39;1822166;78;20833;-60
2022/01/11 05:40:32;;;;;;;17.67;10.95;;;;;;;-5.12;85.14;99143.00;1821979;78;20955;-62
2022/01/11 05:43:00;;;;;;;15.45;11.00;;;;;;;-5.17;85.21;99144.80;1821696;78;20995;-60
2022/01/11 05:45:27;;;;;;;16.07;11.45;;;;;;;-5.19;85.28;99147.25;1822005;78;20884;-59
2022/01/11 05:47:54;;;;;;;16.05;10.48;;;;;;;-5.19;85.28;99151.16;1822183;78;21495;-62
2022/01/11 05:50:21;;;;;;;20.43;11.88;;;;;;;-5.20;85.25;99153.44;1821715;78;20985;-67
2022/01/11 05:52:51;;;;;;;18.17;12.33;;;;;;;-5.24;85.29;99158.67;1822071;78;20837;-64
2022/01/11 05:55:19;;;;;;;18.42;11.03;;;;;;;-5.23;85.46;99162.92;1821790;78;20841;-63
2022/01/11 05:57:46;;;;;;;16.15;11.25;;;;;;;-5.20;85.44;99167.80;1822186;78;20895;-63
2022/01/11 06:00:16;;;;;;;16.90;11.95;;;;;;;-5.21;85.37;99167.50;1821755;78;21093;-62
2022/01/11 06:02:48;;;;;;;18.45;12.43;;;;;;;-5.23;85.42;99175.98;1822202;78;21379;-60
2022/01/11 06:05:17;;;;;;;20.40;12.68;;;;;;;-5.25;85.58;99181.35;1820457;78;20852;-66
2022/01/11 06:07:45;;;;;;;18.37;13.13;;;;;;;-5.24;85.61;99180.88;1821739;77;20907;-61
2022/01/11 06:10:14;;;;;;;16.55;11.88;;;;;;;-5.26;85.50;99191.97;1821887;78;20928;-59
2022/01/11 06:12:42;;;;;;;20.32;12.53;;;;;;;-5.32;85.61;99188.71;1789020;78;21114;-60
2022/01/11 06:15:10;;;;;;;18.48;12.28;;;;;;;-5.31;85.74;99199.47;1826866;78;20857;-63
2022/01/11 06:17:37;;;;;;;19.73;12.47;;;;;;;-5.29;85.76;99193.59;1827071;78;21303;-62
2022/01/11 06:20:05;;;;;;;20.27;11.85;;;;;;;-5.27;85.69;99196.86;1827147;78;20929;-63
2022/01/11 06:22:33;;;;;;;19.23;12.98;;;;;;;-5.27;85.79;99198.98;1826985;78;20912;-63
2022/01/11 06:25:03;;;;;;;23.15;13.80;;;;;;;-5.29;85.75;99203.55;1827071;78;21104;-63
2022/01/11 06:27:28;;;;;;;20.52;13.85;;;;;;;-5.26;85.83;99215.48;1826990;78;21333;-67
2022/01/11 06:29:55;;;;;;;21.95;14.25;;;;;;;-5.23;85.82;99224.31;1827469;78;20861;-59
2022/01/11 06:32:22;;;;;;;23.87;14.63;;;;;;;-5.20;85.80;99223.97;1827503;78;20849;-61
2022/01/11 06:34:49;;;;;;;21.70;13.75;;;;;;;-5.17;85.79;99221.04;1827030;78;20872;-66
2022/01/11 06:37:16;;;;;;;20.12;12.95;;;;;;;-5.14;85.75;99231.18;1826946;78;21057;-61
2022/01/11 06:39:43;;;;;;;20.30;13.98;;;;;;;-5.15;85.54;99232.97;1826928;78;20896;-66
2022/01/11 06:42:11;;;;;;;21.70;13.95;;;;;;;-5.20;85.55;99231.80;1827270;78;21477;-67
2022/01/11 06:44:39;;;;;;;18.05;11.80;;;;;;;-5.23;85.63;99234.75;1827060;78;20904;-61
2022/01/11 06:47:06;;;;;;;20.57;11.80;;;;;;;-5.24;85.49;99235.72;1826987;78;20895;-66
2022/01/11 06:49:34;;;;;;;20.88;13.40;;;;;;;-5.28;85.51;99237.03;1826977;78;21108;-59
2022/01/11 06:52:03;;;;;;;18.20;12.98;;;;;;;-5.29;85.49;99239.30;1827292;78;20876;-65
2022/01/11 06:54:32;;;;;;;24.47;15.05;;;;;;;-5.30;85.50;99242.91;1826790;78;20959;-60
2022/01/11 06:56:59;;;;;;;20.88;13.50;;;;;;;-5.29;85.47;99251.05;1827226;78;20868;-60
2022/01/11 06:59:26;;;;;;;19.05;12.35;;;;;;;-5.28;85.43;99254.00;1826961;78;20911;-60
2022/01/11 07:01:53;;;;;;;21.68;12.60;;;;;;;-5.29;85.40;99247.13;1790106;78;21150;-66
2022/01/11 07:04:22;;;;;;;21.97;14.03;;;;;;;-5.33;85.32;99256.27;1816213;78;20876;-65
2022/01/11 07:06:51;;;;;;;23.70;15.18;;;;;;;-5.34;85.44;99250.70;1820538;77;20931;-61
2022/01/11 07:09:19;;;;;;;21.30;13.45;;;;;;;-5.36;85.43;99259.19;1826920;78;20848;-62
2022/01/11 07:11:46;;;;;;;22.42;14.47;;;;;;;-5.36;85.48;99262.63;1826939;78;21053;-61
2022/01/11 07:14:13;;;;;;;23.75;15.18;;;;;;;-5.36;85.54;99270.94;1827381;78;21116;-66
2022/01/11 07:16:48;;;;;;;22.30;13.55;;;;;;;-5.34;85.60;99268.98;1805865;78;20904;-59
2022/01/11 07:19:12;;;;;;;21.75;14.00;;;;;;;-5.30;85.66;99263.28;1794471;79;20884;-64
2022/01/11 07:21:39;;;;;;;22.37;14.07;;;;;;;-5.25;85.65;99267.55;1794955;80;20844;-68
2022/01/11 07:24:07;;;;;;;18.92;12.50;;;;;;;-5.21;85.58;99268.06;1794893;80;20837;-62
2022/01/11 07:26:34;;;;;;;20.20;13.55;;;;;;;-5.18;85.48;99270.36;1809889;78;21423;-60
2022/01/11 07:29:05;;;;;;;23.27;14.55;;;;;;;-5.17;85.35;99270.67;1819375;78;21648;-65
2022/01/11 07:31:43;;;;;;;20.37;12.93;;;;;;;-5.15;85.24;99274.77;1818684;78;20884;-60
2022/01/11 07:34:13;;;;;;;20.85;14.35;;;;;;;-5.12;85.13;99273.63;1794158;78;21476;-65
2022/01/11 07:36:42;;;;;;;19.35;13.15;;;;;;;-5.16;85.21;99276.24;1812555;78;21475;-56
2022/01/11 07:39:12;;;;;;;23.77;14.05;;;;;;;-5.13;85.27;99281.12;1826422;78;21117;-64
2022/01/11 07:41:41;;;;;;;21.70;13.10;;;;;;;-5.11;85.31;99285.73;1826060;78;21040;-67
2022/01/11 07:44:10;;;;;;;16.77;11.93;;;;;;;-5.08;85.19;99284.08;1807470;78;21006;-61
2022/01/11 07:46:42;;;;;;;16.60;11.70;;;;;;;-5.07;85.02;99288.34;1805749;78;20899;-60
2022/01/11 07:49:10;;;;;;;18.75;11.80;;;;;;;-5.08;84.93;99288.00;1794390;79;20994;-65
2022/01/11 07:51:37;;;;;;;16.10;11.45;;;;;;;-5.05;84.89;99294.22;1794900;79;21115;-63
2022/01/11 07:54:06;;;;;;;17.00;11.93;;;;;;;-4.98;84.96;99291.30;1820976;78;20974;-61
2022/01/11 07:56:39;;;;;;;15.03;11.05;;;;;;;-4.89;84.68;99292.95;1814104;78;20943;-66
2022/01/11 07:59:13;;;;;;;15.38;10.65;;;;;;;-4.87;84.38;99293.11;1806800;78;20944;-60
2022/01/11 08:01:41;;;;;;;18.73;12.55;;;;;;;-4.89;84.29;99295.08;1794709;79;20895;-60
2022/01/11 08:04:08;;;;;;;18.80;11.83;;;;;;;-4.86;84.21;99296.55;1813275;78;21695;-62
2022/01/11 08:06:44;;;;;;;18.35;11.45;;;;;;;-4.86;84.10;99293.45;1819924;78;20833;-65
2022/01/11 08:09:24;;;;;;;14.47;10.43;;;;;;;-4.82;84.12;99291.80;1826761;78;21366;-65
2022/01/11 08:11:58;;;;;;;16.62;10.80;;;;;;;-4.74;83.81;99293.96;1825954;78;20841;-59
2022/01/11 08:14:29;;;;;;;15.93;10.68;;;;;;;-4.73;83.63;99297.40;1833898;77;20883;-60
2022/01/11 08:16:56;;;;;;;17.15;10.23;;;;;;;-4.76;83.47;99295.92;1818294;77;21103;-63
2022/01/11 08:19:25;;;;;;;11.65;9.03;;;;;;;-4.77;83.47;99294.27;1828042;77;20959;-62
2022/01/11 08:21:54;;;;;;;12.25;8.80;;;;;;;-4.71;83.24;99296.23;1855043;77;20971;-65
2022/01/11 08:24:24;;;;;;;14.68;9.50;;;;;;;-4.72;82.69;99290.69;1822843;77;20950;-63
2022/01/11 08:26:53;;;;;;;12.78;9.18;;;;;;;-4.74;82.67;99296.58;1819170;77;21592;-66
2022/01/11 08:29:28;;;;;;;11.80;8.55;;;;;;;-4.73;82.59;99296.89;1761319;80;21728;-65
2022/01/11 08:32:04;;;;;;;14.20;8.68;;;;;;;-4.68;82.39;99289.86;1770595;79;20896;-66
2022/01/11 08:34:39;;;;;;;11.38;7.70;;;;;;;-4.66;82.04;99288.72;1753804;80;20998;-60
2022/01/11 08:37:09;;;;;;;11.25;8.08;;;;;;;-4.62;81.44;99297.08;1745670;80;21474;-65
2022/01/11 08:39:37;;;;;;;12.40;8.23;;;;;;;-4.66;81.09;99304.41;1752161;80;21029;-65
2022/01/11 08:42:05;;;;;;;10.72;8.03;;;;;;;-4.67;81.00;99310.63;1760615;80;21168;-61
2022/01/11 08:44:34;;;;;;;10.13;7.25;;;;;;;-4.67;81.01;99312.42;1764661;80;20974;-66
2022/01/11 08:47:02;;;;;;;9.95;6.87;;;;;;;-4.65;80.76;99307.84;1752777;80;20950;-66
2022/01/11 08:49:31;;;;;;;9.88;6.72;;;;;;;-4.68;80.79;99314.22;1748949;80;20975;-59
2022/01/11 08:51:58;;;;;;;13.85;8.03;;;;;;;-4.68;80.77;99320.75;1769836;79;20955;-65
2022/01/11 08:54:25;;;;;;;18.30;10.20;;;;;;;-4.69;80.80;99315.22;1749454;79;21120;-58
2022/01/11 08:56:55;;;;;;;15.28;9.10;;;;;;;-4.64;80.74;99316.03;1751051;82;20981;-65
2022/01/11 08:59:27;;;;;;;12.35;7.62;;;;;;;-4.60;80.70;99322.08;1754663;81;21005;-61
2022/01/11 09:01:57;;;;;;;12.68;8.33;;;;;;;-4.57;80.44;99326.97;1815830;79;20865;-64
2022/01/11 09:04:27;;;;;;;12.95;7.95;;;;;;;-4.57;80.35;99320.43;1815836;79;21518;-59
2022/01/11 09:07:02;;;;;;;11.18;7.05;;;;;;;-4.54;80.46;99317.50;1816271;78;21103;-65
2022/01/11 09:09:31;;;;;;;13.72;7.85;;;;;;;-4.42;80.43;99316.69;1815877;79;21356;-67
2022/01/11 09:12:02;;;;;;;12.93;8.50;;;;;;;-4.32;80.26;99312.12;1816180;79;20857;-64
2022/01/11 09:14:28;;;;;;;15.15;8.73;;;;;;;-4.28;80.02;99314.23;1815240;79;20992;-63
2022/01/11 09:16:56;;;;;;;12.50;8.75;;;;;;;-4.20;80.06;99313.42;1809197;78;20888;-63
2022/01/11 09:19:24;;;;;;;14.85;9.10;;;;;;;-4.07;80.00;99323.41;1793720;77;21121;-65
2022/01/11 09:21:51;;;;;;;15.93;9.35;;;;;;;-3.99;79.71;99316.34;1795814;77;21494;-58
2022/01/11 09:24:19;;;;;;;12.30;8.33;;;;;;;-3.96;79.25;99321.27;1797047;78;20959;-65
2022/01/11 09:26:48;;;;;;;14.98;9.43;;;;;;;-3.98;78.93;99327.64;1808355;78;20882;-62
2022/01/11 09:29:17;;;;;;;18.48;10.80;;;;;;;-4.06;78.76;99322.41;1740587;81;35833;-61
2022/01/11 09:31:44;;;;;;;19.80;12.58;;;;;;;-4.07;78.96;99323.41;1729617;83;21127;-61
2022/01/11 09:34:11;;;;;;;13.83;9.13;;;;;;;-4.03;78.99;99320.77;1738213;81;20948;-63
2022/01/11 09:36:39;;;;;;;13.72;8.88;;;;;;;-3.99;78.95;99320.76;1737763;81;21633;-69
2022/01/11 09:39:05;;;;;;;13.45;9.28;;;;;;;-4.02;78.73;99317.98;1762441;80;21076;-59
2022/01/11 09:41:35;;;;;;;14.95;9.73;;;;;;;-4.05;78.72;99318.30;1836818;77;21087;-64
2022/01/11 09:44:05;;;;;;;14.15;9.10;;;;;;;-4.03;78.84;99320.77;1752080;80;21604;-59
2022/01/11 09:50:11;;;;;;;14.78;9.25;;;;;;;-3.99;78.79;99307.19;1887824;76;28384;-66
2022/01/11 09:52:40;;;;;;;14.58;9.90;;;;;;;-3.96;78.86;99317.81;1823116;77;21368;-67
2022/01/11 09:55:09;;;;;;;13.55;9.90;;;;;;;-3.82;78.86;99306.67;1858231;77;21227;-65
2022/01/11 09:57:40;;;;;;;15.28;9.75;;;;;;;-3.69;78.56;99309.56;1859204;77;21129;-60
2022/01/11 10:00:25;;;;;;;17.12;11.20;;;;;;;-3.63;78.31;99312.33;1850453;77;21311;-63
2022/01/11 10:02:53;;;;;;;13.75;9.50;;;;;;;-3.59;78.20;99312.82;1851249;77;20901;-61
2022/01/11 10:05:23;;;;;;;14.58;10.05;;;;;;;-3.57;77.95;99312.16;1853503;77;20981;-62
2022/01/11 10:07:54;;;;;;;13.53;9.80;;;;;;;-3.58;77.99;99315.27;1850144;77;21057;-60
2022/01/11 10:10:24;;;;;;;16.37;10.58;;;;;;;-3.55;77.96;99316.73;1855823;77;21540;-64
2022/01/11 10:13:03;;;;;;;16.35;10.98;;;;;;;-3.58;77.75;99317.09;1843519;77;20966;-57
2022/01/11 10:15:39;;;;;;;15.23;10.23;;;;;;;-3.62;77.71;99316.59;1823174;77;21533;-61
2022/01/11 10:18:07;;;;;;;14.50;10.60;;;;;;;-3.60;77.60;99324.27;1853732;77;20966;-59
2022/01/11 10:20:35;;;;;;;16.27;9.95;;;;;;;-3.65;77.57;99326.60;1823537;77;21871;-65
2022/01/11 10:23:07;;;;;;;15.70;11.18;;;;;;;-3.72;77.48;99323.02;1850062;77;20954;-60
2022/01/11 10:25:45;;;;;;;14.45;10.58;;;;;;;-3.80;77.56;99310.75;1850334;77;20955;-63
2022/01/11 10:28:14;;;;;;;18.27;10.85;;;;;;;-3.79;77.75;99319.44;1834082;77;20912;-59
2022/01/11 10:30:43;;;;;;;14.43;10.32;;;;;;;-3.76;77.86;99316.46;1849865;77;20927;-58
2022/01/11 10:33:10;;;;;;;16.10;11.35;;;;;;;-3.75;77.83;99319.41;1857056;77;21374;-60
2022/01/11 10:35:44;;;;;;;18.02;11.38;;;;;;;-3.73;77.80;99322.68;1854576;77;21280;-64
2022/01/11 10:38:29;;;;;;;19.12;12.05;;;;;;;-3.70;78.03;99322.36;1852629;77;20852;-60
2022/01/11 10:40:58;;;;;;;18.98;11.97;;;;;;;-3.64;77.97;99319.88;1840241;77;20884;-59
2022/01/11 10:44:51;;;;;;;18.07;12.13;;;;;;;-3.60;77.91;99312.48;1890886;75;28612;-64
2022/01/11 11:11:14;;;;;;;23.35;15.00;;;;;;;-3.96;78.92;99317.34;1831901;76;28665;-67
2022/01/11 11:13:44;;;;;;;;;;;;;;;-4.01;78.83;99317.50;1772414;79;21535;-68
2022/01/11 11:16:29;;;;;;;17.62;11.97;;;;;;;-4.07;78.83;99316.86;1799838;79;20070;-59
2022/01/11 11:19:01;;;;;;;18.20;12.13;;;;;;;-4.09;79.15;99320.11;1810316;77;20897;-61
2022/01/11 11:21:37;;;;;;;16.40;12.28;;;;;;;-4.07;79.16;99318.17;1763109;79;20961;-63
2022/01/11 11:24:14;;;;;;;17.50;12.43;;;;;;;-4.05;79.26;99320.13;1806527;79;20955;-60
2022/01/11 11:26:49;;;;;;;19.77;11.00;;;;;;;-4.03;79.33;99320.77;1782112;79;21270;-59
2022/01/11 11:29:21;;;;;;;18.02;11.85;;;;;;;-4.01;79.23;99322.73;1792847;77;22190;-60
2022/01/11 11:31:49;;;;;;;17.80;11.57;;;;;;;-4.04;79.18;99325.19;1801622;77;20958;-60
2022/01/11 11:34:15;;;;;;;31.55;21.30;;;;;;;-4.04;79.37;99325.67;1807885;77;21005;-63
2022/01/11 11:36:42;;;;;;;20.97;12.60;;;;;;;-3.98;79.53;99322.41;1807881;78;20911;-65
2022/01/11 11:39:18;;;;;;;18.62;12.37;;;;;;;-3.93;79.44;99322.73;1796379;78;20949;-60
2022/01/11 11:41:55;;;;;;;20.90;13.75;;;;;;;-3.87;79.42;99324.19;1815410;77;21724;-64
2022/01/11 11:44:27;;;;;;;20.65;14.33;;;;;;;-3.79;79.50;99325.98;1813329;77;21492;-63
2022/01/11 11:47:00;;;;;;;19.42;14.03;;;;;;;-3.69;79.49;99322.66;1810605;77;20912;-61
2022/01/11 11:49:52;;;;;;;21.23;13.83;;;;;;;-3.67;79.11;99316.76;1808693;77;21007;-62
2022/01/11 11:52:37;;;;;;;21.50;14.58;;;;;;;-3.68;79.06;99323.00;1802731;77;21507;-60
2022/01/11 11:55:28;;;;;;;20.82;14.65;;;;;;;-3.70;79.14;99315.29;1805323;77;21189;-59
2022/01/11 11:58:06;;;;;;;21.85;14.78;;;;;;;-3.65;79.19;99317.44;1747840;81;21026;-65
2022/01/11 12:00:35;;;;;;;19.80;13.90;;;;;;;-3.67;79.08;99312.83;1799300;77;21720;-59
2022/01/11 12:03:19;;;;;;;19.32;13.38;;;;;;;-3.69;79.13;99313.50;1800959;79;21015;-58
2022/01/11 12:05:56;;;;;;;19.65;13.22;;;;;;;-3.69;79.11;99311.70;1822121;77;20916;-66